Time;durP1;ratioP1;P1;durP2;ratioP2;P2;SDS_P1;SDS_P2;PMS_P1;PMS_P2;Temp;Humidity;BMP_temperature;BMP_pressure;BME280_temperature;BME280_humidity;BME280_pressure;Samples;Min_cycle;Max_cycle;Signal;HPM_P1;HPM_P2
2021/06/07 00:00:36;;;;;;;17.10;15.90;;;14.60;90.30;;;;;;5193691;28;20619;-77
2021/06/07 00:03:08;;;;;;;17.75;16.45;;;14.60;90.00;;;;;;5216504;28;20048;-77
2021/06/07 00:05:40;;;;;;;17.50;16.20;;;14.70;89.90;;;;;;5216341;28;20048;-77
2021/06/07 00:08:12;;;;;;;17.67;16.30;;;14.60;90.00;;;;;;5191825;28;20114;-78
2021/06/07 00:10:44;;;;;;;17.52;16.23;;;14.70;90.10;;;;;;5216877;28;20049;-77
2021/06/07 00:13:18;;;;;;;17.35;16.10;;;14.60;89.90;;;;;;5214547;28;20812;-77
2021/06/07 00:15:51;;;;;;;17.48;16.17;;;14.60;90.00;;;;;;5213832;28;20056;-77
2021/06/07 00:18:25;;;;;;;17.45;16.23;;;14.60;89.70;;;;;;5217482;28;20041;-77
2021/06/07 00:21:03;;;;;;;18.00;16.63;;;14.60;89.80;;;;;;5214577;28;20052;-77
2021/06/07 00:23:36;;;;;;;17.65;16.17;;;14.60;89.90;;;;;;5217341;28;20041;-77
2021/06/07 00:26:08;;;;;;;17.90;16.50;;;14.60;89.90;;;;;;5213630;28;20049;-78
2021/06/07 00:28:40;;;;;;;17.38;16.08;;;14.60;90.10;;;;;;5197835;28;20102;-78
2021/06/07 00:31:13;;;;;;;17.33;16.02;;;14.60;89.80;;;;;;5197228;28;20045;-79
2021/06/07 00:33:45;;;;;;;17.73;16.33;;;14.60;89.70;;;;;;5215385;28;20138;-78
2021/06/07 00:36:21;;;;;;;17.70;16.40;;;14.60;90.80;;;;;;5192529;28;20095;-78
2021/06/07 00:38:55;;;;;;;17.55;16.25;;;14.60;89.90;;;;;;5215714;28;20045;-80
2021/06/07 00:41:27;;;;;;;17.50;16.08;;;14.60;89.90;;;;;;5213562;28;20084;-78
2021/06/07 00:44:03;;;;;;;17.48;16.17;;;14.50;90.10;;;;;;5215466;28;20443;-77
2021/06/07 00:46:35;;;;;;;18.05;16.75;;;14.50;90.90;;;;;;5198120;28;20049;-78
2021/06/07 00:49:08;;;;;;;17.50;16.20;;;14.50;90.00;;;;;;5194825;28;20049;-77
2021/06/07 00:51:42;;;;;;;17.52;16.13;;;14.50;90.10;;;;;;5215368;28;20520;-76
2021/06/07 00:54:15;;;;;;;17.42;16.13;;;14.50;90.10;;;;;;5195090;28;20335;-79
2021/06/07 00:56:47;;;;;;;17.48;16.23;;;14.50;90.70;;;;;;5215278;28;20037;-77
2021/06/07 00:59:19;;;;;;;17.15;15.85;;;14.40;90.60;;;;;;5181019;28;20041;-77
2021/06/07 01:01:51;;;;;;;17.45;16.17;;;14.40;90.70;;;;;;5213617;28;20083;-77
2021/06/07 01:04:23;;;;;;;18.23;16.83;;;14.40;90.80;;;;;;5220558;28;20094;-76
2021/06/07 01:06:55;;;;;;;17.75;16.30;;;14.40;90.80;;;;;;5196347;28;20524;-77
2021/06/07 01:09:27;;;;;;;18.08;16.77;;;14.40;90.60;;;;;;5220878;28;20128;-77
2021/06/07 01:11:59;;;;;;;18.67;17.20;;;14.40;90.90;;;;;;5201007;28;20045;-77
2021/06/07 01:14:31;;;;;;;18.60;17.17;;;14.40;90.60;;;;;;5198516;28;20095;-78
2021/06/07 01:17:03;;;;;;;18.25;16.85;;;14.40;90.70;;;;;;5201226;28;20095;-78
2021/06/07 01:19:35;;;;;;;18.70;17.30;;;14.50;90.60;;;;;;5197822;28;20033;-77
2021/06/07 01:22:07;;;;;;;18.42;17.13;;;14.50;90.80;;;;;;5219088;28;20479;-77
2021/06/07 01:24:39;;;;;;;18.63;17.23;;;14.50;90.80;;;;;;5219352;28;20060;-77
2021/06/07 01:27:12;;;;;;;18.67;17.30;;;14.50;91.00;;;;;;5219709;28;20051;-77
2021/06/07 01:29:44;;;;;;;18.48;17.08;;;14.50;90.80;;;;;;5218005;28;20581;-77
2021/06/07 01:32:16;;;;;;;19.23;17.33;;;14.50;90.50;;;;;;5216573;28;20196;-77
2021/06/07 01:34:48;;;;;;;18.85;17.45;;;14.50;90.60;;;;;;5219025;28;20107;-78
2021/06/07 01:37:20;;;;;;;18.73;17.30;;;14.50;90.70;;;;;;5201318;28;20041;-78
2021/06/07 01:39:53;;;;;;;18.63;17.23;;;14.50;91.10;;;;;;5179862;28;20429;-78
2021/06/07 01:42:25;;;;;;;19.13;17.63;;;14.40;91.10;;;;;;5218353;28;20046;-77
2021/06/07 01:44:56;;;;;;;19.17;17.77;;;14.40;91.20;;;;;;5198576;28;20045;-77
2021/06/07 01:47:28;;;;;;;19.40;17.80;;;14.40;91.20;;;;;;5220347;28;21022;-77
2021/06/07 01:50:01;;;;;;;18.77;17.33;;;14.40;91.20;;;;;;5218067;28;20037;-78
2021/06/07 01:52:33;;;;;;;19.13;17.65;;;14.30;91.10;;;;;;5200853;28;20064;-77
2021/06/07 01:55:05;;;;;;;18.48;17.08;;;14.40;91.10;;;;;;5219098;28;20045;-77
2021/06/07 01:57:39;;;;;;;18.83;17.42;;;14.30;90.80;;;;;;5197138;28;20536;-77
2021/06/07 02:00:32;;;;;;;18.30;16.92;;;14.30;91.10;;;;;;5168644;28;20048;-76
2021/06/07 02:03:06;;;;;;;18.42;16.92;;;14.30;91.60;;;;;;5217515;28;20041;-76
2021/06/07 02:05:40;;;;;;;18.50;17.10;;;14.30;90.90;;;;;;5201826;28;20068;-76
2021/06/07 02:08:15;;;;;;;18.55;17.15;;;14.30;91.00;;;;;;5196336;28;20524;-76
2021/06/07 02:10:56;;;;;;;19.02;17.58;;;14.30;91.00;;;;;;5217960;28;20394;-77
2021/06/07 02:13:28;;;;;;;18.65;17.25;;;14.30;90.90;;;;;;5216700;28;20041;-77
2021/06/07 02:16:06;;;;;;;19.25;17.75;;;14.30;90.90;;;;;;5200072;28;20072;-77
2021/06/07 02:18:38;;;;;;;18.67;17.27;;;14.30;91.00;;;;;;5219894;28;20049;-76
2021/06/07 02:21:11;;;;;;;18.65;17.25;;;14.30;90.80;;;;;;5217543;28;20140;-77
2021/06/07 02:23:43;;;;;;;19.00;17.40;;;14.30;90.80;;;;;;5219112;28;20044;-76
2021/06/07 02:26:16;;;;;;;18.70;17.30;;;14.30;90.80;;;;;;5199874;28;20167;-76
2021/06/07 02:28:50;;;;;;;18.85;17.45;;;14.20;91.10;;;;;;5198641;28;20040;-78
2021/06/07 02:31:23;;;;;;;19.05;17.60;;;14.30;91.30;;;;;;5200529;28;20460;-79
2021/06/07 02:33:56;;;;;;;18.83;17.42;;;14.30;91.20;;;;;;5216223;28;20051;-77
2021/06/07 02:36:30;;;;;;;18.70;17.30;;;14.30;91.20;;;;;;5198709;28;20052;-78
2021/06/07 02:39:07;;;;;;;19.15;17.60;;;14.30;90.70;;;;;;5217058;28;20551;-77
2021/06/07 02:41:41;;;;;;;18.90;17.40;;;14.30;90.50;;;;;;5198745;28;20057;-77
2021/06/07 02:44:19;;;;;;;18.85;17.45;;;14.30;90.80;;;;;;5216920;28;20045;-77
2021/06/07 02:46:51;;;;;;;18.92;17.52;;;14.20;90.80;;;;;;5192342;28;20091;-75
2021/06/07 02:49:23;;;;;;;19.40;17.90;;;14.20;91.10;;;;;;5185016;28;20071;-76
2021/06/07 02:51:55;;;;;;;19.15;17.75;;;14.10;91.30;;;;;;5215921;28;20073;-76
2021/06/07 02:54:27;;;;;;;19.58;18.17;;;14.10;91.20;;;;;;5195369;28;20412;-76
2021/06/07 02:56:59;;;;;;;19.23;17.83;;;14.10;91.20;;;;;;5217083;28;20045;-78
2021/06/07 02:59:31;;;;;;;19.77;18.02;;;14.10;91.20;;;;;;5200986;28;20047;-76
2021/06/07 03:02:04;;;;;;;18.30;17.00;;;14.10;91.10;;;;;;5195490;28;20572;-77
2021/06/07 03:04:36;;;;;;;18.98;17.58;;;14.10;91.20;;;;;;5200814;28;20713;-76
2021/06/07 03:07:08;;;;;;;19.27;17.88;;;14.10;91.00;;;;;;5215718;28;20136;-77
2021/06/07 03:09:40;;;;;;;19.65;18.25;;;14.00;91.00;;;;;;5216505;28;20048;-74
2021/06/07 03:12:12;;;;;;;19.05;17.65;;;14.00;91.10;;;;;;5214323;28;20049;-76
2021/06/07 03:14:44;;;;;;;19.50;18.00;;;14.00;91.00;;;;;;5198611;28;20056;-75
2021/06/07 03:17:16;;;;;;;19.10;17.70;;;14.00;91.00;;;;;;5200890;28;20135;-77
2021/06/07 03:19:48;;;;;;;19.42;17.83;;;14.00;90.90;;;;;;5166697;28;20045;-76
2021/06/07 03:22:22;;;;;;;19.30;17.90;;;14.00;90.90;;;;;;5195420;28;20069;-77
2021/06/07 03:24:54;;;;;;;19.00;17.55;;;14.00;90.90;;;;;;5182308;28;20474;-76
2021/06/07 03:27:26;;;;;;;19.30;17.80;;;14.00;90.80;;;;;;5217192;28;20083;-77
2021/06/07 03:29:58;;;;;;;19.17;17.77;;;14.00;91.00;;;;;;5196977;28;20069;-76
2021/06/07 03:32:30;;;;;;;18.70;17.30;;;14.00;91.00;;;;;;5190915;28;20040;-78
2021/06/07 03:35:06;;;;;;;18.52;17.13;;;14.00;90.60;;;;;;5199207;28;20049;-77
2021/06/07 03:37:40;;;;;;;18.52;17.15;;;14.00;90.50;;;;;;5216362;28;20047;-77
2021/06/07 03:40:16;;;;;;;18.73;17.33;;;14.00;90.40;;;;;;5216048;28;20193;-77
2021/06/07 03:42:48;;;;;;;19.17;17.58;;;14.00;90.40;;;;;;5215637;28;20103;-78
2021/06/07 03:45:20;;;;;;;18.10;16.80;;;14.00;90.00;;;;;;5215998;28;20102;-77
2021/06/07 03:47:52;;;;;;;19.02;17.63;;;14.00;90.20;;;;;;5218239;28;20056;-78
2021/06/07 03:50:26;;;;;;;19.17;17.67;;;13.90;90.70;;;;;;5199280;28;20161;-77
2021/06/07 03:52:58;;;;;;;18.48;17.08;;;13.80;91.50;;;;;;5215168;28;20612;-76
2021/06/07 03:55:33;;;;;;;19.00;17.52;;;13.70;91.40;;;;;;5194465;28;20052;-76
2021/06/07 03:58:06;;;;;;;18.25;16.95;;;13.80;91.30;;;;;;5214334;28;20053;-78
2021/06/07 04:00:39;;;;;;;18.88;17.35;;;13.80;91.10;;;;;;5214112;28;20052;-77
2021/06/07 04:03:12;;;;;;;18.50;17.10;;;13.80;91.20;;;;;;5215058;28;20060;-78
2021/06/07 04:05:44;;;;;;;18.13;16.83;;;13.80;91.10;;;;;;5178174;28;20049;-77
2021/06/07 04:08:16;;;;;;;18.52;17.02;;;13.90;91.10;;;;;;5218002;28;20118;-77
2021/06/07 04:10:48;;;;;;;18.00;16.70;;;13.90;90.80;;;;;;5183019;28;20518;-77
2021/06/07 04:13:20;;;;;;;18.63;17.13;;;14.00;91.80;;;;;;5195675;28;20049;-79
2021/06/07 04:15:52;;;;;;;18.17;16.77;;;14.00;90.70;;;;;;5195039;28;20041;-78
2021/06/07 04:18:25;;;;;;;18.00;16.70;;;14.00;90.50;;;;;;5218788;28;20497;-78
2021/06/07 04:20:57;;;;;;;18.90;17.30;;;14.10;90.70;;;;;;5194374;28;20098;-77
2021/06/07 04:23:29;;;;;;;17.67;16.38;;;14.10;91.10;;;;;;5199004;28;20052;-78
2021/06/07 04:26:01;;;;;;;17.58;16.27;;;14.10;91.20;;;;;;5214871;28;20165;-78
2021/06/07 04:28:33;;;;;;;17.90;16.40;;;14.10;91.20;;;;;;5217435;28;20111;-81
2021/06/07 04:31:06;;;;;;;17.50;16.20;;;14.00;90.80;;;;;;5215692;28;20118;-80
2021/06/07 04:33:38;;;;;;;17.65;16.25;;;14.10;91.10;;;;;;5217088;28;20044;-81
2021/06/07 04:36:09;;;;;;;17.98;16.63;;;14.10;91.20;;;;;;5196452;28;20777;-80
2021/06/07 04:38:41;;;;;;;17.98;16.67;;;14.00;91.30;;;;;;5215527;28;20128;-80
2021/06/07 04:41:13;;;;;;;17.75;16.45;;;14.00;91.00;;;;;;5213360;28;20068;-81
2021/06/07 04:43:45;;;;;;;17.33;16.13;;;14.10;91.60;;;;;;5217347;28;20043;-81
2021/06/07 04:46:17;;;;;;;17.65;16.35;;;14.00;91.30;;;;;;5215707;28;20118;-82
2021/06/07 04:48:49;;;;;;;18.17;16.85;;;14.10;91.60;;;;;;5216365;28;20987;-82
2021/06/07 04:51:21;;;;;;;18.42;17.02;;;14.10;91.90;;;;;;5196208;28;20045;-81
2021/06/07 04:53:53;;;;;;;18.38;16.88;;;14.10;92.20;;;;;;5214109;28;20041;-81
2021/06/07 04:56:25;;;;;;;18.90;17.50;;;14.10;91.90;;;;;;5216598;28;20041;-82
2021/06/07 04:58:57;;;;;;;19.05;17.58;;;14.20;91.70;;;;;;5214599;28;20042;-80
2021/06/07 05:01:29;;;;;;;19.45;18.02;;;14.30;92.10;;;;;;5213910;28;20132;-82
2021/06/07 05:04:01;;;;;;;19.60;18.08;;;14.40;92.20;;;;;;5182201;28;20050;-83
2021/06/07 05:06:33;;;;;;;19.23;17.83;;;14.40;91.90;;;;;;5196400;28;20126;-82
2021/06/07 05:09:05;;;;;;;18.73;17.33;;;14.50;91.60;;;;;;5196404;28;20056;-82
2021/06/07 05:11:40;;;;;;;18.13;16.73;;;14.60;91.40;;;;;;5195753;28;20069;-80
2021/06/07 05:14:12;;;;;;;18.13;16.83;;;14.70;91.50;;;;;;5194733;28;20463;-77
2021/06/07 05:16:44;;;;;;;18.73;17.42;;;14.70;91.70;;;;;;5215540;28;20069;-77
2021/06/07 05:19:16;;;;;;;18.48;17.17;;;14.70;91.30;;;;;;5216392;28;20041;-78
2021/06/07 05:21:48;;;;;;;18.35;17.05;;;14.70;91.40;;;;;;5214512;28;20048;-78
2021/06/07 05:24:20;;;;;;;18.23;16.92;;;14.70;91.90;;;;;;5192656;28;20140;-78
2021/06/07 05:26:51;;;;;;;18.25;16.83;;;14.80;91.80;;;;;;5212989;28;20080;-78
2021/06/07 05:29:23;;;;;;;18.85;17.40;;;14.80;91.90;;;;;;5215110;28;20102;-76
2021/06/07 05:31:55;;;;;;;18.67;17.27;;;14.80;91.60;;;;;;5209812;28;20068;-78
2021/06/07 05:34:27;;;;;;;18.23;16.83;;;14.80;91.30;;;;;;5213448;28;20551;-75
2021/06/07 05:36:59;;;;;;;18.33;17.00;;;14.80;91.20;;;;;;5214012;28;20126;-76
2021/06/07 05:39:31;;;;;;;18.35;16.95;;;14.80;91.20;;;;;;5195180;28;20459;-76
2021/06/07 05:42:04;;;;;;;17.95;16.65;;;14.80;91.00;;;;;;5215822;28;20049;-77
2021/06/07 05:44:36;;;;;;;18.33;16.92;;;14.80;91.10;;;;;;5198986;28;20703;-77
2021/06/07 05:47:08;;;;;;;17.88;16.48;;;14.80;91.00;;;;;;5182170;28;20053;-76
2021/06/07 05:49:40;;;;;;;18.45;16.90;;;14.80;91.00;;;;;;5217191;28;20104;-76
2021/06/07 05:52:12;;;;;;;18.10;16.80;;;14.80;90.70;;;;;;5218319;28;20088;-77
2021/06/07 05:54:44;;;;;;;18.77;17.38;;;14.90;91.10;;;;;;5220048;28;20041;-77
2021/06/07 05:57:16;;;;;;;18.08;16.77;;;14.90;91.00;;;;;;5219405;28;20126;-77
2021/06/07 05:59:48;;;;;;;18.60;17.30;;;15.00;90.60;;;;;;5219601;28;20124;-76
2021/06/07 06:02:20;;;;;;;18.75;17.27;;;15.10;90.40;;;;;;5218060;28;20124;-77
2021/06/07 06:04:51;;;;;;;18.60;17.30;;;15.10;90.10;;;;;;5219769;28;20080;-77
2021/06/07 06:07:23;;;;;;;18.33;17.02;;;15.10;90.00;;;;;;5196279;28;20140;-76
2021/06/07 06:09:55;;;;;;;18.60;17.20;;;15.10;90.00;;;;;;5202599;28;20709;-77
2021/06/07 06:12:28;;;;;;;18.42;17.13;;;15.10;90.50;;;;;;5184346;28;20069;-76
2021/06/07 06:15:00;;;;;;;18.48;17.17;;;15.10;89.70;;;;;;5218429;28;20036;-76
2021/06/07 06:17:32;;;;;;;19.08;17.63;;;15.10;90.50;;;;;;5195538;28;20044;-76
2021/06/07 06:20:06;;;;;;;19.50;18.10;;;15.10;89.90;;;;;;5197424;28;20080;-76
2021/06/07 06:22:38;;;;;;;18.65;17.35;;;15.10;90.00;;;;;;5199678;28;20128;-74
2021/06/07 06:25:12;;;;;;;19.02;17.65;;;15.20;89.60;;;;;;5216959;28;20087;-75
2021/06/07 06:27:44;;;;;;;19.00;17.70;;;15.20;89.40;;;;;;5200334;28;20827;-74
2021/06/07 06:30:26;;;;;;;18.02;16.63;;;15.10;89.60;;;;;;5197471;28;20053;-74
2021/06/07 06:32:59;;;;;;;17.17;15.98;;;15.20;89.10;;;;;;5218255;28;20097;-74
2021/06/07 06:35:32;;;;;;;17.58;16.30;;;15.20;90.00;;;;;;5187962;28;20423;-75
2021/06/07 06:38:04;;;;;;;18.15;16.85;;;15.20;89.20;;;;;;5218307;28;20640;-76
2021/06/07 06:40:38;;;;;;;17.77;16.48;;;15.30;90.20;;;;;;5201579;28;20392;-75
2021/06/07 06:43:10;;;;;;;17.67;16.27;;;15.30;90.20;;;;;;5195415;28;20107;-75
2021/06/07 06:45:43;;;;;;;17.98;16.67;;;15.40;90.10;;;;;;5200552;28;20048;-74
2021/06/07 06:48:15;;;;;;;18.30;17.00;;;15.40;89.30;;;;;;5201502;28;20049;-74
2021/06/07 06:50:47;;;;;;;18.35;16.95;;;15.50;89.50;;;;;;5217304;28;20049;-74
2021/06/07 06:53:20;;;;;;;18.45;17.13;;;15.50;89.10;;;;;;5218730;28;20037;-75
2021/06/07 06:55:53;;;;;;;19.00;17.38;;;15.50;88.70;;;;;;5197704;28;20069;-74
2021/06/07 06:58:25;;;;;;;17.58;16.27;;;15.50;89.90;;;;;;5218524;28;20060;-75
2021/06/07 07:00:57;;;;;;;18.35;16.73;;;15.60;89.80;;;;;;5218100;28;20131;-75
2021/06/07 07:03:29;;;;;;;18.42;17.02;;;15.70;90.40;;;;;;5181869;28;20045;-75
2021/06/07 07:06:01;;;;;;;18.00;16.70;;;15.80;89.10;;;;;;5217975;28;20120;-75
2021/06/07 07:08:33;;;;;;;18.20;16.75;;;15.80;89.50;;;;;;5218132;28;20057;-76
2021/06/07 07:11:05;;;;;;;18.05;16.65;;;15.90;88.60;;;;;;5218127;28;20052;-76
2021/06/07 07:13:38;;;;;;;17.98;16.67;;;16.00;87.90;;;;;;5218812;28;20627;-75
2021/06/07 07:16:10;;;;;;;18.13;16.83;;;16.00;89.30;;;;;;5218698;28;20501;-75
2021/06/07 07:18:43;;;;;;;17.85;16.48;;;16.00;88.70;;;;;;5184332;28;20041;-76
2021/06/07 07:21:15;;;;;;;18.20;16.90;;;16.10;90.00;;;;;;5216768;28;20045;-74
2021/06/07 07:23:48;;;;;;;17.98;16.58;;;16.10;88.10;;;;;;5201164;28;20514;-75
2021/06/07 07:26:19;;;;;;;18.10;16.80;;;16.20;88.80;;;;;;5217005;28;20534;-75
2021/06/07 07:28:51;;;;;;;17.90;16.50;;;16.20;87.00;;;;;;5216818;28;20072;-75
2021/06/07 07:31:23;;;;;;;18.77;17.05;;;16.20;88.50;;;;;;5217129;28;20164;-76
2021/06/07 07:33:55;;;;;;;18.67;17.15;;;16.30;89.00;;;;;;5217217;28;20048;-75
2021/06/07 07:36:27;;;;;;;19.00;17.35;;;16.30;87.80;;;;;;5217315;28;20045;-75
2021/06/07 07:38:59;;;;;;;19.05;17.38;;;16.20;88.20;;;;;;5200463;28;20069;-75
2021/06/07 07:41:31;;;;;;;17.70;16.40;;;16.30;87.90;;;;;;5194009;28;20061;-75
2021/06/07 07:44:04;;;;;;;17.90;16.60;;;16.20;87.20;;;;;;5218284;28;21216;-73
2021/06/07 07:46:45;;;;;;;17.70;16.30;;;16.30;87.40;;;;;;5195399;28;20037;-74
2021/06/07 07:49:18;;;;;;;17.48;16.17;;;16.20;87.00;;;;;;5201147;28;20539;-75
2021/06/07 07:51:51;;;;;;;16.90;15.70;;;16.10;87.60;;;;;;5216259;28;20092;-75
2021/06/07 07:54:24;;;;;;;17.63;16.00;;;16.20;89.00;;;;;;5216475;28;20095;-75
2021/06/07 07:56:55;;;;;;;28.33;22.10;;;16.20;88.70;;;;;;5214618;28;20107;-75
2021/06/07 07:59:27;;;;;;;24.27;18.77;;;16.30;89.00;;;;;;5218459;28;20138;-75
2021/06/07 08:02:00;;;;;;;18.30;16.92;;;16.40;88.00;;;;;;5215903;28;20045;-74
2021/06/07 08:04:32;;;;;;;19.10;17.50;;;16.50;88.80;;;;;;5218533;28;20053;-75
2021/06/07 08:07:05;;;;;;;20.92;18.75;;;16.70;88.40;;;;;;5216209;28;20737;-75
2021/06/07 08:09:40;;;;;;;18.45;17.13;;;16.80;88.90;;;;;;5202018;28;20095;-76
2021/06/07 08:12:12;;;;;;;18.25;16.98;;;17.00;88.10;;;;;;5215100;28;20037;-76
2021/06/07 08:14:44;;;;;;;18.52;17.02;;;17.30;86.20;;;;;;5219475;28;20041;-75
2021/06/07 08:17:16;;;;;;;18.42;17.13;;;17.60;87.40;;;;;;5217702;28;20044;-76
2021/06/07 08:19:48;;;;;;;18.35;17.05;;;17.80;84.60;;;;;;5218940;28;20045;-75
2021/06/07 08:22:21;;;;;;;18.75;17.45;;;18.00;83.30;;;;;;5217553;28;20041;-74
2021/06/07 08:24:52;;;;;;;18.42;17.13;;;18.30;85.60;;;;;;5184616;28;20052;-76
2021/06/07 08:27:24;;;;;;;18.48;17.15;;;18.50;83.60;;;;;;5200639;28;20130;-75
2021/06/07 08:29:56;;;;;;;18.23;16.85;;;18.50;82.90;;;;;;5218111;28;20065;-76
2021/06/07 08:32:28;;;;;;;18.13;16.83;;;18.70;84.30;;;;;;5196069;28;20506;-75
2021/06/07 08:35:01;;;;;;;18.13;16.83;;;18.70;83.60;;;;;;5217939;28;20041;-75
2021/06/07 08:37:32;;;;;;;17.98;16.67;;;18.80;84.20;;;;;;5217284;28;20033;-75
2021/06/07 08:40:08;;;;;;;17.58;16.27;;;18.80;82.30;;;;;;5195609;28;20052;-75
2021/06/07 08:42:42;;;;;;;17.58;16.20;;;18.80;78.60;;;;;;5218030;28;20124;-75
2021/06/07 08:45:20;;;;;;;18.20;16.90;;;18.90;81.20;;;;;;5198109;28;20055;-74
2021/06/07 08:47:54;;;;;;;17.50;16.30;;;18.90;81.20;;;;;;5218564;28;20068;-74
2021/06/07 08:50:30;;;;;;;18.23;16.92;;;19.00;80.60;;;;;;5218631;28;20090;-76
2021/06/07 08:53:02;;;;;;;18.05;16.75;;;19.10;79.30;;;;;;5190076;28;20044;-76
2021/06/07 08:55:36;;;;;;;18.55;17.25;;;19.10;78.00;;;;;;5194586;28;20075;-76
2021/06/07 08:58:09;;;;;;;18.17;16.88;;;19.10;79.30;;;;;;5217986;28;20048;-77
2021/06/07 09:00:42;;;;;;;18.00;16.70;;;19.20;77.10;;;;;;5198444;28;20048;-76
2021/06/07 09:03:19;;;;;;;17.77;16.48;;;19.30;77.30;;;;;;5218007;28;20706;-76
2021/06/07 09:05:57;;;;;;;17.20;16.00;;;19.40;78.40;;;;;;5217493;28;20460;-76
2021/06/07 09:08:34;;;;;;;17.77;16.38;;;19.40;78.50;;;;;;5219026;28;20408;-75
2021/06/07 09:11:15;;;;;;;17.77;16.48;;;19.50;78.70;;;;;;5216230;28;20049;-76
2021/06/07 09:13:47;;;;;;;18.15;16.85;;;19.60;79.20;;;;;;5218171;28;20118;-74
2021/06/07 09:16:18;;;;;;;17.98;16.67;;;19.70;78.10;;;;;;5216958;28;20080;-75
2021/06/07 09:18:51;;;;;;;18.08;16.77;;;19.70;78.70;;;;;;5217397;28;20527;-75
2021/06/07 09:21:24;;;;;;;16.83;15.63;;;19.80;79.10;;;;;;5193367;28;20068;-76
2021/06/07 09:24:04;;;;;;;17.75;16.45;;;19.80;77.10;;;;;;5219847;28;20064;-75
2021/06/07 09:26:40;;;;;;;17.40;16.20;;;19.90;77.90;;;;;;5221291;28;20048;-75
2021/06/07 09:29:35;;;;;;;17.40;16.15;;;19.90;78.70;;;;;;5220965;28;20051;-74
2021/06/07 09:32:17;;;;;;;17.25;16.05;;;20.00;79.40;;;;;;5220835;28;20167;-75
2021/06/07 09:35:08;;;;;;;17.90;16.60;;;20.00;78.00;;;;;;5222561;28;20689;-75
2021/06/07 09:37:39;;;;;;;17.98;16.67;;;20.10;79.40;;;;;;5221530;28;20160;-75
2021/06/07 09:40:22;;;;;;;17.30;16.10;;;20.20;75.00;;;;;;5221464;28;20099;-76
2021/06/07 09:42:56;;;;;;;17.88;16.58;;;20.30;77.90;;;;;;5197139;28;20444;-75
2021/06/07 09:45:46;;;;;;;18.17;16.77;;;20.50;76.20;;;;;;5221422;28;20056;-74
2021/06/07 09:48:18;;;;;;;17.73;16.42;;;20.50;74.60;;;;;;5222125;28;20047;-75
2021/06/07 09:51:01;;;;;;;17.77;16.58;;;20.60;73.70;;;;;;5221324;28;20091;-74
2021/06/07 09:53:48;;;;;;;17.80;16.38;;;20.80;73.60;;;;;;5222033;28;20121;-74
2021/06/07 09:56:22;;;;;;;17.95;16.65;;;20.90;74.40;;;;;;5219827;28;20106;-74
2021/06/07 09:58:54;;;;;;;17.75;16.55;;;21.00;72.80;;;;;;5221785;28;20048;-74
2021/06/07 10:01:29;;;;;;;17.70;16.40;;;21.20;74.50;;;;;;5219871;28;20041;-74
2021/06/07 10:04:05;;;;;;;18.13;16.83;;;21.40;73.80;;;;;;5184776;28;20049;-74
2021/06/07 10:06:37;;;;;;;18.15;16.85;;;21.50;73.40;;;;;;5194985;28;20045;-74
2021/06/07 10:09:11;;;;;;;19.13;17.52;;;21.50;69.60;;;;;;5221982;28;20045;-75
2021/06/07 10:11:49;;;;;;;18.38;17.08;;;21.60;66.50;;;;;;5219728;28;20534;-73
2021/06/07 10:14:22;;;;;;;18.40;17.10;;;21.70;70.10;;;;;;5194306;28;20041;-75
2021/06/07 10:17:02;;;;;;;18.23;16.92;;;21.80;63.70;;;;;;5221190;28;20115;-74
2021/06/07 10:22:18;;;;;;;18.25;16.95;;;21.90;66.80;;;;;;5219583;28;20056;-73
2021/06/07 10:24:50;;;;;;;18.38;16.90;;;22.10;69.10;;;;;;5203789;28;20516;-74
2021/06/07 10:27:22;;;;;;;18.00;16.70;;;22.10;70.40;;;;;;5197865;28;20550;-73
2021/06/07 10:29:54;;;;;;;18.08;16.77;;;22.10;67.40;;;;;;5221098;28;20048;-75
2021/06/07 10:32:29;;;;;;;18.10;16.73;;;22.10;68.70;;;;;;5219947;28;20134;-75
2021/06/07 10:35:05;;;;;;;18.05;16.85;;;22.10;68.10;;;;;;5202294;28;20140;-75
2021/06/07 10:37:56;;;;;;;18.02;16.73;;;22.10;65.40;;;;;;5220443;28;20037;-75
2021/06/07 10:40:29;;;;;;;18.15;16.92;;;22.20;65.90;;;;;;5219714;28;20123;-74
2021/06/07 10:43:03;;;;;;;17.63;16.42;;;22.40;65.30;;;;;;5219075;28;20122;-75
2021/06/07 10:45:40;;;;;;;18.55;17.20;;;22.50;65.50;;;;;;5217588;28;20574;-74
2021/06/07 10:48:13;;;;;;;18.60;17.30;;;22.70;64.40;;;;;;5220442;28;20782;-74
2021/06/07 10:50:46;;;;;;;18.67;17.25;;;22.80;64.80;;;;;;5196801;28;20044;-75
2021/06/07 10:53:25;;;;;;;17.95;16.75;;;22.90;63.70;;;;;;5199611;28;20580;-75
2021/06/07 10:56:06;;;;;;;18.60;17.30;;;23.00;61.00;;;;;;5216337;28;20555;-74
2021/06/07 10:58:58;;;;;;;18.00;16.77;;;23.00;60.30;;;;;;5219544;28;20087;-74
2021/06/07 11:01:50;;;;;;;18.38;17.08;;;22.80;62.70;;;;;;5217605;28;20578;-74
2021/06/07 11:04:36;;;;;;;18.02;16.73;;;22.80;63.00;;;;;;5216717;28;20041;-74
2021/06/07 11:07:10;;;;;;;17.80;16.60;;;22.40;61.90;;;;;;5217986;28;20076;-74
2021/06/07 11:10:27;;;;;;;17.90;16.67;;;22.30;62.50;;;;;;5181375;28;20543;-74
2021/06/07 11:13:03;;;;;;;17.80;16.60;;;22.20;65.70;;;;;;5212480;28;20053;-74
2021/06/07 11:15:57;;;;;;;17.30;16.10;;;22.30;62.80;;;;;;5216572;28;20037;-74
2021/06/07 11:18:29;;;;;;;;;;;22.10;60.90;;;;;;5217562;28;20086;-75
2021/06/07 11:21:21;;;;;;;17.38;16.17;;;22.00;63.60;;;;;;5215310;28;19976;-75
2021/06/07 11:23:53;;;;;;;17.98;16.67;;;22.00;65.60;;;;;;5216097;28;20486;-74
2021/06/07 11:26:38;;;;;;;17.95;16.75;;;22.00;66.90;;;;;;5218533;28;20090;-75
2021/06/07 11:29:14;;;;;;;18.55;17.17;;;22.00;68.60;;;;;;5196652;28;20122;-76
2021/06/07 11:31:51;;;;;;;18.20;16.80;;;21.90;66.40;;;;;;5218411;28;20116;-75
2021/06/07 11:34:45;;;;;;;18.42;16.92;;;21.80;67.40;;;;;;5219520;28;20520;-75
2021/06/07 11:37:33;;;;;;;18.08;16.83;;;21.70;69.30;;;;;;5217148;28;20049;-76
2021/06/07 11:40:07;;;;;;;18.00;16.80;;;21.60;68.60;;;;;;5219388;28;20045;-74
2021/06/07 11:42:56;;;;;;;18.00;16.73;;;21.60;71.10;;;;;;5197151;28;20163;-74
2021/06/07 11:45:39;;;;;;;17.60;16.30;;;21.50;71.10;;;;;;5218476;28;20090;-73
2021/06/07 11:48:11;;;;;;;17.50;16.30;;;21.50;70.90;;;;;;5218128;28;20487;-74
2021/06/07 11:50:43;;;;;;;17.45;16.15;;;21.30;69.50;;;;;;5194904;28;20037;-74
2021/06/07 11:53:17;;;;;;;17.23;16.02;;;21.20;72.10;;;;;;5193514;28;20061;-73
2021/06/07 11:55:53;;;;;;;17.58;16.38;;;21.20;73.50;;;;;;5219015;28;20764;-75
2021/06/07 11:58:26;;;;;;;17.42;16.05;;;21.00;72.20;;;;;;5201018;28;20084;-74
2021/06/07 12:01:01;;;;;;;17.08;15.88;;;20.90;73.90;;;;;;5218939;28;20037;-74
2021/06/07 12:03:33;;;;;;;16.98;15.77;;;20.80;74.70;;;;;;5219290;28;20049;-73
2021/06/07 12:06:08;;;;;;;17.00;15.80;;;20.70;75.00;;;;;;5198419;28;20570;-76
2021/06/07 12:08:40;;;;;;;17.20;15.80;;;20.70;75.00;;;;;;5216404;28;20064;-74
2021/06/07 12:11:12;;;;;;;16.83;15.52;;;20.60;75.20;;;;;;5215865;28;20093;-74
2021/06/07 12:13:44;;;;;;;16.83;15.63;;;20.40;76.20;;;;;;5213771;28;20037;-75
2021/06/07 12:16:16;;;;;;;17.45;16.05;;;20.30;76.40;;;;;;5217197;28;20051;-74
2021/06/07 12:18:52;;;;;;;16.55;15.45;;;20.20;77.30;;;;;;5181996;28;20060;-73
2021/06/07 12:21:28;;;;;;;17.30;16.10;;;20.10;77.70;;;;;;5213164;28;20049;-75
2021/06/07 12:29:41;;;;;;;17.05;15.70;;;20.40;78.70;;;;;;5217002;28;20040;-75
2021/06/07 12:32:17;;;;;;;17.38;16.08;;;20.40;78.10;;;;;;5212792;28;20856;-75
2021/06/07 12:35:10;;;;;;;17.38;16.02;;;20.50;78.90;;;;;;5214033;28;20131;-74
2021/06/07 12:37:51;;;;;;;18.27;16.98;;;20.60;78.80;;;;;;5191856;28;20551;-74
2021/06/07 12:40:28;;;;;;;18.02;16.73;;;20.80;80.10;;;;;;5211756;28;20087;-73
2021/06/07 12:43:08;;;;;;;18.23;16.83;;;20.90;79.80;;;;;;5189892;28;20068;-75
2021/06/07 12:45:48;;;;;;;17.95;16.63;;;21.10;78.70;;;;;;5213900;28;20102;-76
2021/06/07 12:48:23;;;;;;;17.65;16.45;;;21.30;78.00;;;;;;5216946;28;20045;-74
2021/06/07 12:51:00;;;;;;;17.95;16.65;;;21.40;76.00;;;;;;5186156;28;20095;-76
2021/06/07 12:53:53;;;;;;;17.30;16.10;;;21.30;74.90;;;;;;5216465;28;20106;-74
2021/06/07 12:56:30;;;;;;;18.08;16.77;;;21.20;75.60;;;;;;5215479;28;20041;-74
2021/06/07 12:59:02;;;;;;;17.73;16.52;;;21.20;75.80;;;;;;5220082;28;20052;-75
2021/06/07 13:01:37;;;;;;;18.23;16.92;;;21.50;75.30;;;;;;5220141;28;20765;-74
2021/06/07 13:04:09;;;;;;;18.13;16.83;;;21.60;74.50;;;;;;5193724;28;20045;-74
2021/06/07 13:06:46;;;;;;;18.38;17.08;;;21.70;74.70;;;;;;5221293;28;20041;-75
2021/06/07 13:09:31;;;;;;;18.23;16.92;;;21.70;75.90;;;;;;5220642;28;20047;-74
2021/06/07 13:12:03;;;;;;;18.20;16.88;;;21.80;75.60;;;;;;5217966;28;20134;-75